sensor_id;sensor_type;location;lat;lon;timestamp;P1;durP1;ratioP1;P2;durP2;ratioP2
20441;SDS011;10380;52.102;20.614;2024-02-15T00:00:21;19.80;;;10.97;;
20441;SDS011;10380;52.102;20.614;2024-02-15T00:02:54;19.63;;;9.80;;
20441;SDS011;10380;52.102;20.614;2024-02-15T00:05:22;16.93;;;10.03;;
20441;SDS011;10380;52.102;20.614;2024-02-15T00:07:50;18.87;;;10.83;;
20441;SDS011;10380;52.102;20.614;2024-02-15T00:10:17;17.90;;;10.30;;
20441;SDS011;10380;52.102;20.614;2024-02-15T00:12:45;15.80;;;9.63;;
20441;SDS011;10380;52.102;20.614;2024-02-15T00:15:14;17.20;;;10.00;;
20441;SDS011;10380;52.102;20.614;2024-02-15T00:17:41;18.90;;;9.37;;
20441;SDS011;10380;52.102;20.614;2024-02-15T00:20:08;17.50;;;9.43;;
20441;SDS011;10380;52.102;20.614;2024-02-15T00:22:36;16.63;;;9.40;;
20441;SDS011;10380;52.102;20.614;2024-02-15T00:25:04;16.93;;;9.43;;
20441;SDS011;10380;52.102;20.614;2024-02-15T00:27:32;16.67;;;9.93;;
20441;SDS011;10380;52.102;20.614;2024-02-15T00:30:01;16.97;;;9.63;;
20441;SDS011;10380;52.102;20.614;2024-02-15T00:32:29;15.97;;;9.57;;
20441;SDS011;10380;52.102;20.614;2024-02-15T00:34:56;14.40;;;8.87;;
20441;SDS011;10380;52.102;20.614;2024-02-15T00:37:24;20.23;;;10.40;;
20441;SDS011;10380;52.102;20.614;2024-02-15T00:39:51;17.50;;;9.87;;
20441;SDS011;10380;52.102;20.614;2024-02-15T00:42:18;25.13;;;10.43;;
20441;SDS011;10380;52.102;20.614;2024-02-15T00:44:45;19.77;;;9.70;;
20441;SDS011;10380;52.102;20.614;2024-02-15T00:47:12;14.20;;;9.87;;
20441;SDS011;10380;52.102;20.614;2024-02-15T00:49:39;17.77;;;10.47;;
20441;SDS011;10380;52.102;20.614;2024-02-15T00:52:06;21.97;;;9.57;;
20441;SDS011;10380;52.102;20.614;2024-02-15T00:54:34;18.07;;;9.53;;
20441;SDS011;10380;52.102;20.614;2024-02-15T00:57:00;15.70;;;9.23;;
20441;SDS011;10380;52.102;20.614;2024-02-15T00:59:27;18.80;;;10.20;;
20441;SDS011;10380;52.102;20.614;2024-02-15T01:01:54;18.93;;;10.03;;
20441;SDS011;10380;52.102;20.614;2024-02-15T01:04:22;18.23;;;9.63;;
20441;SDS011;10380;52.102;20.614;2024-02-15T01:06:49;17.33;;;9.07;;
20441;SDS011;10380;52.102;20.614;2024-02-15T01:09:16;16.80;;;9.50;;
20441;SDS011;10380;52.102;20.614;2024-02-15T01:11:43;18.57;;;10.07;;
20441;SDS011;10380;52.102;20.614;2024-02-15T01:14:10;15.37;;;9.20;;
20441;SDS011;10380;52.102;20.614;2024-02-15T01:16:37;21.93;;;12.40;;
20441;SDS011;10380;52.102;20.614;2024-02-15T01:19:04;16.63;;;9.97;;
20441;SDS011;10380;52.102;20.614;2024-02-15T01:21:32;17.07;;;10.70;;
20441;SDS011;10380;52.102;20.614;2024-02-15T01:24:01;16.83;;;10.53;;
20441;SDS011;10380;52.102;20.614;2024-02-15T01:26:30;20.53;;;11.00;;
20441;SDS011;10380;52.102;20.614;2024-02-15T01:28:57;19.80;;;10.17;;
20441;SDS011;10380;52.102;20.614;2024-02-15T01:31:24;18.50;;;10.30;;
20441;SDS011;10380;52.102;20.614;2024-02-15T01:33:52;23.67;;;12.83;;
20441;SDS011;10380;52.102;20.614;2024-02-15T01:36:20;24.83;;;11.37;;
20441;SDS011;10380;52.102;20.614;2024-02-15T01:38:47;21.10;;;10.83;;
20441;SDS011;10380;52.102;20.614;2024-02-15T01:41:14;20.07;;;10.60;;
20441;SDS011;10380;52.102;20.614;2024-02-15T01:43:44;16.80;;;9.73;;
20441;SDS011;10380;52.102;20.614;2024-02-15T01:46:12;16.47;;;10.17;;
20441;SDS011;10380;52.102;20.614;2024-02-15T01:48:40;15.87;;;10.00;;
20441;SDS011;10380;52.102;20.614;2024-02-15T01:51:09;21.07;;;10.27;;
20441;SDS011;10380;52.102;20.614;2024-02-15T01:53:38;18.17;;;9.83;;
20441;SDS011;10380;52.102;20.614;2024-02-15T01:56:08;14.00;;;8.60;;
20441;SDS011;10380;52.102;20.614;2024-02-15T01:58:39;14.27;;;10.00;;
20441;SDS011;10380;52.102;20.614;2024-02-15T02:01:08;20.20;;;10.43;;
20441;SDS011;10380;52.102;20.614;2024-02-15T02:03:35;18.77;;;9.67;;
20441;SDS011;10380;52.102;20.614;2024-02-15T02:06:03;15.13;;;8.13;;
20441;SDS011;10380;52.102;20.614;2024-02-15T02:08:31;21.97;;;9.63;;
20441;SDS011;10380;52.102;20.614;2024-02-15T02:10:59;19.03;;;10.10;;
20441;SDS011;10380;52.102;20.614;2024-02-15T02:13:28;16.80;;;9.47;;
20441;SDS011;10380;52.102;20.614;2024-02-15T02:15:56;15.83;;;9.57;;
20441;SDS011;10380;52.102;20.614;2024-02-15T02:18:24;17.57;;;10.00;;
20441;SDS011;10380;52.102;20.614;2024-02-15T02:20:52;16.57;;;10.27;;
20441;SDS011;10380;52.102;20.614;2024-02-15T02:23:20;18.93;;;9.87;;
20441;SDS011;10380;52.102;20.614;2024-02-15T02:25:51;22.10;;;10.17;;
20441;SDS011;10380;52.102;20.614;2024-02-15T02:28:19;19.43;;;9.93;;
20441;SDS011;10380;52.102;20.614;2024-02-15T02:30:47;21.63;;;10.07;;
20441;SDS011;10380;52.102;20.614;2024-02-15T02:33:15;22.30;;;10.53;;
20441;SDS011;10380;52.102;20.614;2024-02-15T02:35:46;21.83;;;9.23;;
20441;SDS011;10380;52.102;20.614;2024-02-15T02:38:15;17.97;;;10.03;;
20441;SDS011;10380;52.102;20.614;2024-02-15T02:40:43;24.90;;;10.57;;
20441;SDS011;10380;52.102;20.614;2024-02-15T02:43:10;19.90;;;10.30;;
20441;SDS011;10380;52.102;20.614;2024-02-15T02:45:39;23.00;;;10.90;;
20441;SDS011;10380;52.102;20.614;2024-02-15T02:48:06;17.03;;;10.43;;
20441;SDS011;10380;52.102;20.614;2024-02-15T02:50:33;20.50;;;9.70;;
20441;SDS011;10380;52.102;20.614;2024-02-15T02:53:01;19.37;;;10.37;;
20441;SDS011;10380;52.102;20.614;2024-02-15T02:55:28;19.43;;;9.90;;
20441;SDS011;10380;52.102;20.614;2024-02-15T02:57:57;18.90;;;10.70;;
20441;SDS011;10380;52.102;20.614;2024-02-15T03:00:24;19.90;;;10.00;;
20441;SDS011;10380;52.102;20.614;2024-02-15T03:02:51;19.93;;;10.97;;
20441;SDS011;10380;52.102;20.614;2024-02-15T03:05:18;18.53;;;10.40;;
20441;SDS011;10380;52.102;20.614;2024-02-15T03:07:48;18.50;;;10.67;;
20441;SDS011;10380;52.102;20.614;2024-02-15T03:10:17;19.80;;;10.37;;
20441;SDS011;10380;52.102;20.614;2024-02-15T03:12:45;17.90;;;10.63;;
20441;SDS011;10380;52.102;20.614;2024-02-15T03:15:15;19.43;;;10.90;;
20441;SDS011;10380;52.102;20.614;2024-02-15T03:17:45;18.50;;;10.57;;
20441;SDS011;10380;52.102;20.614;2024-02-15T03:20:13;17.70;;;9.80;;
20441;SDS011;10380;52.102;20.614;2024-02-15T03:22:55;17.90;;;11.13;;
20441;SDS011;10380;52.102;20.614;2024-02-15T03:25:24;17.13;;;10.60;;
20441;SDS011;10380;52.102;20.614;2024-02-15T03:27:52;18.33;;;11.77;;
20441;SDS011;10380;52.102;20.614;2024-02-15T03:30:22;19.30;;;11.40;;
20441;SDS011;10380;52.102;20.614;2024-02-15T03:32:53;20.83;;;12.33;;
20441;SDS011;10380;52.102;20.614;2024-02-15T03:35:22;19.97;;;11.37;;
20441;SDS011;10380;52.102;20.614;2024-02-15T03:37:51;18.80;;;11.03;;
20441;SDS011;10380;52.102;20.614;2024-02-15T03:40:22;22.63;;;10.70;;
20441;SDS011;10380;52.102;20.614;2024-02-15T03:42:53;25.63;;;12.50;;
20441;SDS011;10380;52.102;20.614;2024-02-15T03:45:20;21.47;;;11.07;;
20441;SDS011;10380;52.102;20.614;2024-02-15T03:47:52;19.20;;;11.90;;
20441;SDS011;10380;52.102;20.614;2024-02-15T03:50:20;20.23;;;10.47;;
20441;SDS011;10380;52.102;20.614;2024-02-15T03:52:49;19.60;;;11.80;;
20441;SDS011;10380;52.102;20.614;2024-02-15T03:55:19;23.37;;;11.43;;
20441;SDS011;10380;52.102;20.614;2024-02-15T03:57:49;22.00;;;11.77;;
20441;SDS011;10380;52.102;20.614;2024-02-15T04:00:16;18.40;;;11.13;;
20441;SDS011;10380;52.102;20.614;2024-02-15T04:02:48;20.10;;;11.53;;
20441;SDS011;10380;52.102;20.614;2024-02-15T04:05:16;18.77;;;12.30;;
20441;SDS011;10380;52.102;20.614;2024-02-15T04:07:45;16.57;;;11.07;;
20441;SDS011;10380;52.102;20.614;2024-02-15T04:10:12;21.93;;;12.37;;
20441;SDS011;10380;52.102;20.614;2024-02-15T04:12:40;22.00;;;12.67;;
20441;SDS011;10380;52.102;20.614;2024-02-15T04:15:10;21.93;;;13.10;;
20441;SDS011;10380;52.102;20.614;2024-02-15T04:17:44;20.97;;;11.13;;
20441;SDS011;10380;52.102;20.614;2024-02-15T04:20:11;25.47;;;12.80;;
20441;SDS011;10380;52.102;20.614;2024-02-15T04:22:39;19.50;;;11.53;;
20441;SDS011;10380;52.102;20.614;2024-02-15T04:25:09;21.20;;;11.90;;
20441;SDS011;10380;52.102;20.614;2024-02-15T04:27:37;21.30;;;11.57;;
20441;SDS011;10380;52.102;20.614;2024-02-15T04:30:05;19.63;;;12.60;;
20441;SDS011;10380;52.102;20.614;2024-02-15T04:32:35;20.97;;;11.67;;
20441;SDS011;10380;52.102;20.614;2024-02-15T04:35:02;23.33;;;12.23;;
20441;SDS011;10380;52.102;20.614;2024-02-15T04:37:34;26.03;;;12.83;;
20441;SDS011;10380;52.102;20.614;2024-02-15T04:40:01;21.13;;;12.63;;
20441;SDS011;10380;52.102;20.614;2024-02-15T04:42:35;19.80;;;11.97;;
20441;SDS011;10380;52.102;20.614;2024-02-15T04:45:06;25.70;;;13.13;;
20441;SDS011;10380;52.102;20.614;2024-02-15T04:47:35;21.43;;;12.80;;
20441;SDS011;10380;52.102;20.614;2024-02-15T04:50:02;22.67;;;12.47;;
20441;SDS011;10380;52.102;20.614;2024-02-15T04:52:32;24.20;;;12.87;;
20441;SDS011;10380;52.102;20.614;2024-02-15T04:54:59;27.13;;;13.00;;
20441;SDS011;10380;52.102;20.614;2024-02-15T04:57:26;20.90;;;12.60;;
20441;SDS011;10380;52.102;20.614;2024-02-15T04:59:56;23.23;;;13.00;;
20441;SDS011;10380;52.102;20.614;2024-02-15T05:02:26;21.00;;;13.07;;
20441;SDS011;10380;52.102;20.614;2024-02-15T05:04:53;20.87;;;13.90;;
20441;SDS011;10380;52.102;20.614;2024-02-15T05:07:24;24.03;;;13.63;;
20441;SDS011;10380;52.102;20.614;2024-02-15T05:09:51;22.73;;;13.40;;
20441;SDS011;10380;52.102;20.614;2024-02-15T05:12:24;23.03;;;13.77;;
20441;SDS011;10380;52.102;20.614;2024-02-15T05:14:51;25.50;;;14.27;;
20441;SDS011;10380;52.102;20.614;2024-02-15T05:17:20;28.40;;;14.90;;
20441;SDS011;10380;52.102;20.614;2024-02-15T05:19:49;25.20;;;15.30;;
20441;SDS011;10380;52.102;20.614;2024-02-15T05:22:16;26.00;;;15.73;;
20441;SDS011;10380;52.102;20.614;2024-02-15T05:24:45;23.30;;;15.47;;
20441;SDS011;10380;52.102;20.614;2024-02-15T05:27:12;26.33;;;15.83;;
20441;SDS011;10380;52.102;20.614;2024-02-15T05:29:39;27.53;;;14.87;;
20441;SDS011;10380;52.102;20.614;2024-02-15T05:32:10;31.67;;;17.20;;
20441;SDS011;10380;52.102;20.614;2024-02-15T05:34:37;25.37;;;15.83;;
20441;SDS011;10380;52.102;20.614;2024-02-15T05:37:06;25.10;;;15.37;;
20441;SDS011;10380;52.102;20.614;2024-02-15T05:39:34;31.37;;;16.27;;
20441;SDS011;10380;52.102;20.614;2024-02-15T05:42:01;25.47;;;15.67;;
20441;SDS011;10380;52.102;20.614;2024-02-15T05:44:28;24.60;;;17.27;;
20441;SDS011;10380;52.102;20.614;2024-02-15T05:46:55;29.67;;;17.50;;
20441;SDS011;10380;52.102;20.614;2024-02-15T05:49:23;28.00;;;17.43;;
20441;SDS011;10380;52.102;20.614;2024-02-15T05:51:50;31.67;;;18.07;;
20441;SDS011;10380;52.102;20.614;2024-02-15T05:54:20;26.33;;;16.43;;
20441;SDS011;10380;52.102;20.614;2024-02-15T05:56:49;25.20;;;15.50;;
20441;SDS011;10380;52.102;20.614;2024-02-15T05:59:19;27.27;;;17.13;;
20441;SDS011;10380;52.102;20.614;2024-02-15T06:01:47;27.60;;;18.03;;
20441;SDS011;10380;52.102;20.614;2024-02-15T06:04:17;29.77;;;16.77;;
20441;SDS011;10380;52.102;20.614;2024-02-15T06:06:44;30.93;;;18.67;;
20441;SDS011;10380;52.102;20.614;2024-02-15T06:09:16;28.43;;;16.73;;
20441;SDS011;10380;52.102;20.614;2024-02-15T06:11:43;28.47;;;17.17;;
20441;SDS011;10380;52.102;20.614;2024-02-15T06:14:12;29.23;;;17.30;;
20441;SDS011;10380;52.102;20.614;2024-02-15T06:16:45;28.67;;;17.73;;
20441;SDS011;10380;52.102;20.614;2024-02-15T06:19:12;32.23;;;18.77;;
20441;SDS011;10380;52.102;20.614;2024-02-15T06:21:41;32.97;;;19.00;;
20441;SDS011;10380;52.102;20.614;2024-02-15T06:24:08;31.10;;;18.40;;
20441;SDS011;10380;52.102;20.614;2024-02-15T06:26:36;33.30;;;17.50;;
20441;SDS011;10380;52.102;20.614;2024-02-15T06:29:05;31.37;;;18.83;;
20441;SDS011;10380;52.102;20.614;2024-02-15T06:31:50;30.83;;;18.40;;
20441;SDS011;10380;52.102;20.614;2024-02-15T06:34:36;31.63;;;18.87;;
20441;SDS011;10380;52.102;20.614;2024-02-15T06:37:36;29.13;;;18.40;;
20441;SDS011;10380;52.102;20.614;2024-02-15T06:40:22;34.43;;;20.07;;
20441;SDS011;10380;52.102;20.614;2024-02-15T06:42:49;34.50;;;20.53;;
20441;SDS011;10380;52.102;20.614;2024-02-15T06:45:16;28.57;;;18.00;;
20441;SDS011;10380;52.102;20.614;2024-02-15T06:47:44;34.87;;;20.80;;
20441;SDS011;10380;52.102;20.614;2024-02-15T06:50:15;32.90;;;19.13;;
20441;SDS011;10380;52.102;20.614;2024-02-15T06:52:43;30.90;;;18.43;;
20441;SDS011;10380;52.102;20.614;2024-02-15T06:55:11;30.47;;;18.90;;
20441;SDS011;10380;52.102;20.614;2024-02-15T06:57:38;32.37;;;20.00;;
20441;SDS011;10380;52.102;20.614;2024-02-15T07:00:09;30.57;;;18.40;;
20441;SDS011;10380;52.102;20.614;2024-02-15T07:02:41;31.00;;;20.03;;
20441;SDS011;10380;52.102;20.614;2024-02-15T07:05:11;28.83;;;17.87;;
20441;SDS011;10380;52.102;20.614;2024-02-15T07:07:38;34.00;;;21.17;;
20441;SDS011;10380;52.102;20.614;2024-02-15T07:10:06;35.80;;;20.00;;
20441;SDS011;10380;52.102;20.614;2024-02-15T07:12:35;32.77;;;19.83;;
20441;SDS011;10380;52.102;20.614;2024-02-15T07:15:04;31.60;;;19.73;;
20441;SDS011;10380;52.102;20.614;2024-02-15T07:17:35;36.20;;;20.97;;
20441;SDS011;10380;52.102;20.614;2024-02-15T07:20:06;34.30;;;22.07;;
20441;SDS011;10380;52.102;20.614;2024-02-15T07:22:36;36.37;;;20.93;;
20441;SDS011;10380;52.102;20.614;2024-02-15T07:25:05;33.57;;;19.60;;
20441;SDS011;10380;52.102;20.614;2024-02-15T07:27:32;34.20;;;19.33;;
20441;SDS011;10380;52.102;20.614;2024-02-15T07:30:01;31.93;;;20.80;;
20441;SDS011;10380;52.102;20.614;2024-02-15T07:32:31;30.53;;;20.70;;
20441;SDS011;10380;52.102;20.614;2024-02-15T07:35:01;32.40;;;20.47;;
20441;SDS011;10380;52.102;20.614;2024-02-15T07:37:29;34.33;;;19.07;;
20441;SDS011;10380;52.102;20.614;2024-02-15T07:39:56;30.17;;;18.47;;
20441;SDS011;10380;52.102;20.614;2024-02-15T07:42:24;33.87;;;19.57;;
20441;SDS011;10380;52.102;20.614;2024-02-15T07:44:52;34.40;;;19.37;;
20441;SDS011;10380;52.102;20.614;2024-02-15T07:47:19;35.13;;;20.83;;
20441;SDS011;10380;52.102;20.614;2024-02-15T07:49:50;36.87;;;20.67;;
20441;SDS011;10380;52.102;20.614;2024-02-15T07:52:17;33.20;;;20.10;;
20441;SDS011;10380;52.102;20.614;2024-02-15T07:54:45;31.33;;;19.13;;
20441;SDS011;10380;52.102;20.614;2024-02-15T07:57:12;31.27;;;19.53;;
20441;SDS011;10380;52.102;20.614;2024-02-15T07:59:40;30.03;;;18.97;;
20441;SDS011;10380;52.102;20.614;2024-02-15T08:02:08;28.03;;;19.13;;
20441;SDS011;10380;52.102;20.614;2024-02-15T08:04:35;32.00;;;21.70;;
20441;SDS011;10380;52.102;20.614;2024-02-15T08:07:07;34.23;;;20.37;;
20441;SDS011;10380;52.102;20.614;2024-02-15T08:09:37;32.40;;;19.17;;
20441;SDS011;10380;52.102;20.614;2024-02-15T08:12:08;33.33;;;20.30;;
20441;SDS011;10380;52.102;20.614;2024-02-15T08:14:36;30.13;;;19.87;;
20441;SDS011;10380;52.102;20.614;2024-02-15T08:17:03;30.47;;;20.60;;
20441;SDS011;10380;52.102;20.614;2024-02-15T08:19:30;35.53;;;19.90;;
20441;SDS011;10380;52.102;20.614;2024-02-15T08:22:02;33.97;;;22.30;;
20441;SDS011;10380;52.102;20.614;2024-02-15T08:24:31;37.50;;;20.67;;
20441;SDS011;10380;52.102;20.614;2024-02-15T08:26:58;35.27;;;22.23;;
20441;SDS011;10380;52.102;20.614;2024-02-15T08:29:26;35.33;;;20.37;;
20441;SDS011;10380;52.102;20.614;2024-02-15T08:31:53;33.90;;;21.13;;
20441;SDS011;10380;52.102;20.614;2024-02-15T08:34:21;34.17;;;21.97;;
20441;SDS011;10380;52.102;20.614;2024-02-15T08:36:48;34.90;;;21.20;;
20441;SDS011;10380;52.102;20.614;2024-02-15T08:39:15;32.57;;;20.77;;
20441;SDS011;10380;52.102;20.614;2024-02-15T08:41:43;36.00;;;21.40;;
20441;SDS011;10380;52.102;20.614;2024-02-15T08:44:11;36.90;;;22.97;;
20441;SDS011;10380;52.102;20.614;2024-02-15T08:46:42;35.27;;;22.00;;
20441;SDS011;10380;52.102;20.614;2024-02-15T08:49:08;37.63;;;22.27;;
20441;SDS011;10380;52.102;20.614;2024-02-15T08:51:40;35.57;;;21.37;;
20441;SDS011;10380;52.102;20.614;2024-02-15T08:54:07;36.23;;;21.77;;
20441;SDS011;10380;52.102;20.614;2024-02-15T08:56:35;37.70;;;23.07;;
20441;SDS011;10380;52.102;20.614;2024-02-15T08:59:02;33.93;;;23.60;;
20441;SDS011;10380;52.102;20.614;2024-02-15T09:01:30;39.03;;;23.73;;
20441;SDS011;10380;52.102;20.614;2024-02-15T09:03:57;37.27;;;21.90;;
20441;SDS011;10380;52.102;20.614;2024-02-15T09:06:25;31.47;;;21.10;;
20441;SDS011;10380;52.102;20.614;2024-02-15T09:08:52;41.83;;;24.47;;
20441;SDS011;10380;52.102;20.614;2024-02-15T09:11:19;41.00;;;25.90;;
20441;SDS011;10380;52.102;20.614;2024-02-15T09:13:46;41.73;;;27.27;;
20441;SDS011;10380;52.102;20.614;2024-02-15T09:16:15;37.83;;;23.80;;
20441;SDS011;10380;52.102;20.614;2024-02-15T09:18:42;36.23;;;24.43;;
20441;SDS011;10380;52.102;20.614;2024-02-15T09:21:12;36.73;;;22.63;;
20441;SDS011;10380;52.102;20.614;2024-02-15T09:23:41;38.40;;;24.17;;
20441;SDS011;10380;52.102;20.614;2024-02-15T09:26:08;42.27;;;24.93;;
20441;SDS011;10380;52.102;20.614;2024-02-15T09:28:36;35.57;;;24.77;;
20441;SDS011;10380;52.102;20.614;2024-02-15T09:31:03;38.60;;;25.30;;
20441;SDS011;10380;52.102;20.614;2024-02-15T09:33:30;35.43;;;21.87;;
20441;SDS011;10380;52.102;20.614;2024-02-15T09:35:57;40.13;;;24.93;;
20441;SDS011;10380;52.102;20.614;2024-02-15T09:38:24;43.17;;;24.80;;
20441;SDS011;10380;52.102;20.614;2024-02-15T09:40:51;32.17;;;20.87;;
20441;SDS011;10380;52.102;20.614;2024-02-15T09:43:18;36.40;;;21.73;;
20441;SDS011;10380;52.102;20.614;2024-02-15T09:45:46;35.93;;;21.43;;
20441;SDS011;10380;52.102;20.614;2024-02-15T09:48:14;40.53;;;22.40;;
20441;SDS011;10380;52.102;20.614;2024-02-15T09:50:44;30.87;;;19.43;;
20441;SDS011;10380;52.102;20.614;2024-02-15T09:53:13;35.97;;;22.57;;
20441;SDS011;10380;52.102;20.614;2024-02-15T09:55:41;28.07;;;19.30;;
20441;SDS011;10380;52.102;20.614;2024-02-15T09:58:09;33.63;;;20.87;;
20441;SDS011;10380;52.102;20.614;2024-02-15T10:00:39;33.50;;;20.83;;
20441;SDS011;10380;52.102;20.614;2024-02-15T10:03:06;32.13;;;22.23;;
20441;SDS011;10380;52.102;20.614;2024-02-15T10:05:34;34.73;;;20.90;;
20441;SDS011;10380;52.102;20.614;2024-02-15T10:08:01;28.37;;;19.60;;
20441;SDS011;10380;52.102;20.614;2024-02-15T10:10:30;31.07;;;19.37;;
20441;SDS011;10380;52.102;20.614;2024-02-15T10:12:59;33.77;;;20.97;;
20441;SDS011;10380;52.102;20.614;2024-02-15T10:15:31;32.93;;;21.03;;
20441;SDS011;10380;52.102;20.614;2024-02-15T10:18:05;40.23;;;21.97;;
20441;SDS011;10380;52.102;20.614;2024-02-15T10:20:36;39.20;;;22.53;;
20441;SDS011;10380;52.102;20.614;2024-02-15T10:25:36;32.33;;;20.53;;
20441;SDS011;10380;52.102;20.614;2024-02-15T10:28:12;29.93;;;21.03;;
20441;SDS011;10380;52.102;20.614;2024-02-15T10:30:42;36.27;;;20.33;;
20441;SDS011;10380;52.102;20.614;2024-02-15T10:33:33;35.50;;;20.80;;
20441;SDS011;10380;52.102;20.614;2024-02-15T10:36:07;32.20;;;20.20;;
20441;SDS011;10380;52.102;20.614;2024-02-15T10:38:35;32.33;;;20.90;;
20441;SDS011;10380;52.102;20.614;2024-02-15T10:41:03;33.80;;;21.07;;
20441;SDS011;10380;52.102;20.614;2024-02-15T10:43:34;34.70;;;21.33;;
20441;SDS011;10380;52.102;20.614;2024-02-15T10:46:04;35.53;;;20.77;;
20441;SDS011;10380;52.102;20.614;2024-02-15T10:48:36;32.50;;;20.87;;
20441;SDS011;10380;52.102;20.614;2024-02-15T10:51:06;31.77;;;20.40;;
20441;SDS011;10380;52.102;20.614;2024-02-15T10:53:39;32.87;;;21.27;;
20441;SDS011;10380;52.102;20.614;2024-02-15T10:56:26;32.20;;;20.80;;
20441;SDS011;10380;52.102;20.614;2024-02-15T10:59:00;35.03;;;24.30;;
20441;SDS011;10380;52.102;20.614;2024-02-15T11:01:47;31.50;;;21.40;;
20441;SDS011;10380;52.102;20.614;2024-02-15T11:04:24;32.27;;;21.33;;
20441;SDS011;10380;52.102;20.614;2024-02-15T11:06:58;34.77;;;20.20;;
20441;SDS011;10380;52.102;20.614;2024-02-15T11:09:27;36.83;;;22.60;;
20441;SDS011;10380;52.102;20.614;2024-02-15T11:11:56;33.73;;;20.50;;
20441;SDS011;10380;52.102;20.614;2024-02-15T11:16:58;33.20;;;20.87;;
20441;SDS011;10380;52.102;20.614;2024-02-15T11:22:07;39.20;;;23.03;;
20441;SDS011;10380;52.102;20.614;2024-02-15T11:24:37;28.43;;;19.53;;
20441;SDS011;10380;52.102;20.614;2024-02-15T11:27:11;34.70;;;21.57;;
20441;SDS011;10380;52.102;20.614;2024-02-15T11:29:50;29.23;;;17.60;;
20441;SDS011;10380;52.102;20.614;2024-02-15T11:32:35;31.03;;;19.63;;
20441;SDS011;10380;52.102;20.614;2024-02-15T11:35:30;32.27;;;20.20;;
20441;SDS011;10380;52.102;20.614;2024-02-15T11:37:57;37.63;;;22.13;;
20441;SDS011;10380;52.102;20.614;2024-02-15T11:43:08;33.73;;;20.93;;
20441;SDS011;10380;52.102;20.614;2024-02-15T11:45:37;27.27;;;19.10;;
20441;SDS011;10380;52.102;20.614;2024-02-15T11:48:08;30.00;;;19.20;;
20441;SDS011;10380;52.102;20.614;2024-02-15T11:50:40;30.40;;;19.77;;
20441;SDS011;10380;52.102;20.614;2024-02-15T11:53:08;32.07;;;18.20;;
20441;SDS011;10380;52.102;20.614;2024-02-15T11:55:37;30.83;;;19.03;;
20441;SDS011;10380;52.102;20.614;2024-02-15T11:58:05;28.30;;;18.47;;
20441;SDS011;10380;52.102;20.614;2024-02-15T12:00:37;31.00;;;19.57;;
20441;SDS011;10380;52.102;20.614;2024-02-15T12:03:24;26.90;;;18.23;;
20441;SDS011;10380;52.102;20.614;2024-02-15T12:06:27;27.67;;;17.70;;
20441;SDS011;10380;52.102;20.614;2024-02-15T12:09:13;33.70;;;19.33;;
20441;SDS011;10380;52.102;20.614;2024-02-15T12:12:03;28.35;;;17.83;;
20441;SDS011;10380;52.102;20.614;2024-02-15T12:14:49;30.53;;;19.00;;
20441;SDS011;10380;52.102;20.614;2024-02-15T12:17:34;26.87;;;17.10;;
20441;SDS011;10380;52.102;20.614;2024-02-15T12:20:20;29.83;;;18.87;;
20441;SDS011;10380;52.102;20.614;2024-02-15T12:22:51;41.72;;;21.42;;
20441;SDS011;10380;52.102;20.614;2024-02-15T12:25:19;30.57;;;19.63;;
20441;SDS011;10380;52.102;20.614;2024-02-15T12:27:54;29.52;;;18.92;;
20441;SDS011;10380;52.102;20.614;2024-02-15T12:30:22;31.70;;;20.07;;
20441;SDS011;10380;52.102;20.614;2024-02-15T12:32:53;30.47;;;19.50;;
20441;SDS011;10380;52.102;20.614;2024-02-15T12:35:37;33.03;;;19.73;;
20441;SDS011;10380;52.102;20.614;2024-02-15T12:38:04;27.70;;;18.97;;
20441;SDS011;10380;52.102;20.614;2024-02-15T12:40:32;35.33;;;20.93;;
20441;SDS011;10380;52.102;20.614;2024-02-15T12:43:06;31.25;;;20.52;;
20441;SDS011;10380;52.102;20.614;2024-02-15T12:45:37;34.60;;;20.10;;
20441;SDS011;10380;52.102;20.614;2024-02-15T12:48:06;31.43;;;20.27;;
20441;SDS011;10380;52.102;20.614;2024-02-15T12:50:34;28.80;;;20.77;;
20441;SDS011;10380;52.102;20.614;2024-02-15T12:53:02;29.00;;;19.75;;
20441;SDS011;10380;52.102;20.614;2024-02-15T12:55:31;33.13;;;21.17;;
20441;SDS011;10380;52.102;20.614;2024-02-15T12:58:03;30.75;;;19.90;;
20441;SDS011;10380;52.102;20.614;2024-02-15T13:00:35;30.88;;;19.85;;
20441;SDS011;10380;52.102;20.614;2024-02-15T13:03:06;30.25;;;20.08;;
20441;SDS011;10380;52.102;20.614;2024-02-15T13:05:38;30.55;;;20.10;;
20441;SDS011;10380;52.102;20.614;2024-02-15T13:08:06;31.63;;;19.38;;
20441;SDS011;10380;52.102;20.614;2024-02-15T13:10:40;30.93;;;17.27;;
20441;SDS011;10380;52.102;20.614;2024-02-15T13:13:07;29.05;;;17.42;;
20441;SDS011;10380;52.102;20.614;2024-02-15T13:15:37;27.70;;;17.20;;
20441;SDS011;10380;52.102;20.614;2024-02-15T13:18:05;28.83;;;18.13;;
20441;SDS011;10380;52.102;20.614;2024-02-15T13:20:36;31.58;;;19.00;;
20441;SDS011;10380;52.102;20.614;2024-02-15T13:23:08;27.10;;;17.67;;
20441;SDS011;10380;52.102;20.614;2024-02-15T13:25:46;24.83;;;17.00;;
20441;SDS011;10380;52.102;20.614;2024-02-15T13:28:12;29.75;;;16.08;;
20441;SDS011;10380;52.102;20.614;2024-02-15T13:30:40;29.60;;;18.63;;
20441;SDS011;10380;52.102;20.614;2024-02-15T13:33:10;28.75;;;18.25;;
20441;SDS011;10380;52.102;20.614;2024-02-15T13:35:37;26.13;;;16.83;;
20441;SDS011;10380;52.102;20.614;2024-02-15T13:38:04;24.00;;;15.65;;
20441;SDS011;10380;52.102;20.614;2024-02-15T13:40:35;30.05;;;17.83;;
20441;SDS011;10380;52.102;20.614;2024-02-15T13:43:02;29.02;;;18.77;;
20441;SDS011;10380;52.102;20.614;2024-02-15T13:45:32;27.60;;;18.20;;
20441;SDS011;10380;52.102;20.614;2024-02-15T13:48:08;31.17;;;18.85;;
20441;SDS011;10380;52.102;20.614;2024-02-15T13:50:36;24.65;;;15.68;;
20441;SDS011;10380;52.102;20.614;2024-02-15T13:53:06;24.63;;;15.15;;
20441;SDS011;10380;52.102;20.614;2024-02-15T13:55:36;24.90;;;16.83;;
20441;SDS011;10380;52.102;20.614;2024-02-15T13:58:03;25.77;;;16.23;;
20441;SDS011;10380;52.102;20.614;2024-02-15T14:00:30;26.50;;;16.70;;
20441;SDS011;10380;52.102;20.614;2024-02-15T14:03:01;28.40;;;17.73;;
20441;SDS011;10380;52.102;20.614;2024-02-15T14:05:30;27.93;;;17.93;;
20441;SDS011;10380;52.102;20.614;2024-02-15T14:07:58;29.63;;;16.90;;
20441;SDS011;10380;52.102;20.614;2024-02-15T14:10:28;26.40;;;16.17;;
20441;SDS011;10380;52.102;20.614;2024-02-15T14:12:56;27.07;;;17.30;;
20441;SDS011;10380;52.102;20.614;2024-02-15T14:15:28;28.03;;;17.37;;
20441;SDS011;10380;52.102;20.614;2024-02-15T14:17:56;27.23;;;16.70;;
20441;SDS011;10380;52.102;20.614;2024-02-15T14:20:23;31.87;;;18.10;;
20441;SDS011;10380;52.102;20.614;2024-02-15T14:22:50;30.67;;;18.02;;
20441;SDS011;10380;52.102;20.614;2024-02-15T14:25:26;31.77;;;18.17;;
20441;SDS011;10380;52.102;20.614;2024-02-15T14:27:53;27.23;;;17.50;;
20441;SDS011;10380;52.102;20.614;2024-02-15T14:30:20;30.37;;;19.37;;
20441;SDS011;10380;52.102;20.614;2024-02-15T14:33:06;30.45;;;19.15;;
20441;SDS011;10380;52.102;20.614;2024-02-15T14:35:47;34.03;;;19.83;;